PWSweather.com
Personal Weather Stations
Station Observations
MENWDWX1
Menstrie, ScotlandGB

MenstrieScotlandGB

Lat: 56.148322, Lon: -3.85483

Elevation: 62

Station Type: Davis Vantage Pro 2

Latest ConditionsUpdated 8:00:01 AM GMT Sunday, Jun 16, 2019
Currently Today's Max Today's Min Today's Average
Temperature 54.1°F12.3°C 54.1°F12.3°C 50.3°F10.2°C 51.7°F10.9°C
Dew Point 46.4°F8.0°C 46.5°F8.1°C 43.4°F6.3°C 44.5°F6.9°C
Winds 2.3 mph ESE3.7 kmh ESE 3.5 mph -5.6 kmh - - 1.5 mph 2.4 kmh
Wind Gusts 3.5 mph5.6 kmh 6.9 mph11.1 kmh - -
Humidity 75% 77% 74% 76%
Pressure 29.77 in1008.1 mb 29.78 in1008.5 mb 29.75 in1007.5 mb -
Hour Temp Dew Point Humidity Winds Wind Gusts Pressure Precip Precip Rate Daily Precip Total
08:00 AM 54.1°F12.3°C 46.4°F8.0°C 75% 2.3 mph ESE3.7 kmh ESE 3.5 mph5.6 kmh 29.77 in1008.1 mb - 0.00 in0.0 mm 0.00 in0.0 mm
07:55 AM 53.9°F12.2°C 46.5°F8.1°C 76% 1.2 mph ESE1.9 kmh ESE 3.5 mph5.6 kmh 29.77 in1008.1 mb - 0.00 in0.0 mm 0.00 in0.0 mm
07:50 AM 53.6°F12.0°C 46.2°F7.9°C 76% 1.2 mph ESE1.9 kmh ESE 2.3 mph3.7 kmh 29.77 in1008.1 mb - 0.00 in0.0 mm 0.00 in0.0 mm
07:45 AM 53.5°F11.9°C 46.1°F7.8°C 76% 1.2 mph ESE1.9 kmh ESE 2.3 mph3.7 kmh 29.77 in1008.1 mb - 0.00 in0.0 mm 0.00 in0.0 mm
07:40 AM 53.3°F11.8°C 45.9°F7.7°C 76% 1.2 mph ESE1.9 kmh ESE 2.3 mph3.7 kmh 29.78 in1008.5 mb - 0.00 in0.0 mm 0.00 in0.0 mm
07:35 AM 53.1°F11.7°C 45.7°F7.6°C 76% Calm Calm -- 29.77 in1008.1 mb - 0.00 in0.0 mm 0.00 in0.0 mm
07:30 AM 53.1°F11.7°C 45.7°F7.6°C 76% Calm Calm -- 29.77 in1008.1 mb - 0.00 in0.0 mm 0.00 in0.0 mm
07:25 AM 53.0°F11.7°C 45.6°F7.6°C 76% Calm Calm -- 29.77 in1008.1 mb - 0.00 in0.0 mm 0.00 in0.0 mm
07:20 AM 52.9°F11.6°C 45.5°F7.5°C 76% Calm Calm -- 29.77 in1008.1 mb - 0.00 in0.0 mm 0.00 in0.0 mm
07:15 AM 52.9°F11.6°C 45.2°F7.3°C 75% Calm Calm -- 29.77 in1008.1 mb - 0.00 in0.0 mm 0.00 in0.0 mm
07:10 AM 53.1°F11.7°C 45.7°F7.6°C 76% 1.2 mph ESE1.9 kmh ESE 2.3 mph3.7 kmh 29.77 in1008.1 mb - 0.00 in0.0 mm 0.00 in0.0 mm
07:05 AM 53.2°F11.8°C 45.8°F7.7°C 76% Calm Calm -- 29.77 in1008.1 mb - 0.00 in0.0 mm 0.00 in0.0 mm
07:00 AM 53.1°F11.7°C 45.4°F7.4°C 75% Calm Calm -- 29.77 in1008.1 mb - 0.00 in0.0 mm 0.00 in0.0 mm
06:55 AM 53.1°F11.7°C 45.4°F7.4°C 75% 1.2 mph ESE1.9 kmh ESE 2.3 mph3.7 kmh 29.77 in1008.1 mb - 0.00 in0.0 mm 0.00 in0.0 mm
06:50 AM 53.0°F11.7°C 45.3°F7.4°C 75% 1.2 mph ESE1.9 kmh ESE 2.3 mph3.7 kmh 29.77 in1008.1 mb - 0.00 in0.0 mm 0.00 in0.0 mm
06:45 AM 52.9°F11.6°C 45.5°F7.5°C 76% 1.2 mph ESE1.9 kmh ESE 1.2 mph1.9 kmh 29.77 in1008.1 mb - 0.00 in0.0 mm 0.00 in0.0 mm
06:40 AM 52.8°F11.6°C 45.4°F7.4°C 76% 1.2 mph ESE1.9 kmh ESE 2.3 mph3.7 kmh 29.77 in1008.1 mb - 0.00 in0.0 mm 0.00 in0.0 mm
06:35 AM 52.6°F11.4°C 45.3°F7.4°C 76% 2.3 mph ESE3.7 kmh ESE 3.5 mph5.6 kmh 29.77 in1008.1 mb - 0.00 in0.0 mm 0.00 in0.0 mm
06:30 AM 52.3°F11.3°C 45.3°F7.4°C 77% 1.2 mph SE1.9 kmh SE 2.3 mph3.7 kmh 29.77 in1008.1 mb - 0.00 in0.0 mm 0.00 in0.0 mm
06:25 AM 52.1°F11.2°C 45.1°F7.3°C 77% 2.3 mph SE3.7 kmh SE 3.5 mph5.6 kmh 29.77 in1008.1 mb - 0.00 in0.0 mm 0.00 in0.0 mm
06:20 AM 51.9°F11.1°C 44.9°F7.2°C 77% 2.3 mph ESE3.7 kmh ESE 3.5 mph5.6 kmh 29.77 in1008.1 mb - 0.00 in0.0 mm 0.00 in0.0 mm
06:15 AM 51.8°F11.0°C 44.8°F7.1°C 77% Calm Calm -- 29.77 in1008.1 mb - 0.00 in0.0 mm 0.00 in0.0 mm
06:10 AM 51.7°F10.9°C 44.7°F7.1°C 77% Calm Calm -- 29.76 in1007.8 mb - 0.00 in0.0 mm 0.00 in0.0 mm
06:05 AM 51.5°F10.8°C 44.5°F6.9°C 77% Calm Calm -- 29.76 in1007.8 mb - 0.00 in0.0 mm 0.00 in0.0 mm
06:00 AM 51.4°F10.8°C 44.4°F6.9°C 77% Calm Calm -- 29.76 in1007.8 mb - 0.00 in0.0 mm 0.00 in0.0 mm
05:55 AM 51.3°F10.7°C 44.3°F6.8°C 77% Calm Calm -- 29.76 in1007.8 mb - 0.00 in0.0 mm 0.00 in0.0 mm
05:50 AM 51.2°F10.7°C 44.2°F6.8°C 77% Calm Calm -- 29.76 in1007.8 mb - 0.00 in0.0 mm 0.00 in0.0 mm
05:45 AM 51.1°F10.6°C 44.1°F6.7°C 77% Calm Calm -- 29.76 in1007.8 mb - 0.00 in0.0 mm 0.00 in0.0 mm
05:40 AM 51.1°F10.6°C 44.1°F6.7°C 77% Calm Calm -- 29.76 in1007.8 mb - 0.00 in0.0 mm 0.00 in0.0 mm
05:35 AM 51.0°F10.6°C 44.0°F6.7°C 77% Calm Calm -- 29.76 in1007.8 mb - 0.00 in0.0 mm 0.00 in0.0 mm
05:30 AM 51.0°F10.6°C 44.0°F6.7°C 77% Calm Calm -- 29.76 in1007.8 mb - 0.00 in0.0 mm 0.00 in0.0 mm
05:25 AM 50.9°F10.5°C 43.9°F6.6°C 77% Calm Calm -- 29.76 in1007.8 mb - 0.00 in0.0 mm 0.00 in0.0 mm
05:20 AM 50.9°F10.5°C 43.9°F6.6°C 77% Calm Calm -- 29.76 in1007.8 mb - 0.00 in0.0 mm 0.00 in0.0 mm
05:15 AM 50.8°F10.4°C 43.8°F6.6°C 77% Calm Calm -- 29.76 in1007.8 mb - 0.00 in0.0 mm 0.00 in0.0 mm
05:10 AM 50.7°F10.4°C 43.8°F6.6°C 77% 1.2 mph ESE1.9 kmh ESE 2.3 mph3.7 kmh 29.75 in1007.5 mb - 0.00 in0.0 mm 0.00 in0.0 mm
05:05 AM 50.6°F10.3°C 43.7°F6.5°C 77% 1.2 mph ESE1.9 kmh ESE 2.3 mph3.7 kmh 29.76 in1007.8 mb - 0.00 in0.0 mm 0.00 in0.0 mm
05:00 AM 50.6°F10.3°C 43.7°F6.5°C 77% 1.2 mph ESE1.9 kmh ESE 1.2 mph1.9 kmh 29.75 in1007.5 mb - 0.00 in0.0 mm 0.00 in0.0 mm
04:55 AM 50.5°F10.3°C 43.6°F6.4°C 77% 1.2 mph ESE1.9 kmh ESE 2.3 mph3.7 kmh 29.76 in1007.8 mb - 0.00 in0.0 mm 0.00 in0.0 mm
04:50 AM 50.5°F10.3°C 43.6°F6.4°C 77% 2.3 mph ESE3.7 kmh ESE 3.5 mph5.6 kmh 29.75 in1007.5 mb - 0.00 in0.0 mm 0.00 in0.0 mm
04:45 AM 50.4°F10.2°C 43.5°F6.4°C 77% 2.3 mph ESE3.7 kmh ESE 3.5 mph5.6 kmh 29.76 in1007.8 mb - 0.00 in0.0 mm 0.00 in0.0 mm
04:40 AM 50.4°F10.2°C 43.5°F6.4°C 77% 1.2 mph ESE1.9 kmh ESE 1.2 mph1.9 kmh 29.76 in1007.8 mb - 0.00 in0.0 mm 0.00 in0.0 mm
04:35 AM 50.4°F10.2°C 43.5°F6.4°C 77% 2.3 mph ESE3.7 kmh ESE 3.5 mph5.6 kmh 29.76 in1007.8 mb - 0.00 in0.0 mm 0.00 in0.0 mm
04:30 AM 50.4°F10.2°C 43.5°F6.4°C 77% 3.5 mph E5.6 kmh E 5.8 mph9.3 kmh 29.75 in1007.5 mb - 0.00 in0.0 mm 0.00 in0.0 mm
04:25 AM 50.5°F10.3°C 43.6°F6.4°C 77% 2.3 mph E3.7 kmh E 3.5 mph5.6 kmh 29.75 in1007.5 mb - 0.00 in0.0 mm 0.00 in0.0 mm
04:20 AM 50.4°F10.2°C 43.5°F6.4°C 77% 2.3 mph E3.7 kmh E 3.5 mph5.6 kmh 29.75 in1007.5 mb - 0.00 in0.0 mm 0.00 in0.0 mm
04:15 AM 50.3°F10.2°C 43.4°F6.3°C 77% Calm Calm -- 29.75 in1007.5 mb - 0.00 in0.0 mm 0.00 in0.0 mm
04:10 AM 50.4°F10.2°C 43.5°F6.4°C 77% Calm Calm -- 29.75 in1007.5 mb - 0.00 in0.0 mm 0.00 in0.0 mm
04:05 AM 50.4°F10.2°C 43.5°F6.4°C 77% Calm Calm -- 29.75 in1007.5 mb - 0.00 in0.0 mm 0.00 in0.0 mm
04:00 AM 50.5°F10.3°C 43.6°F6.4°C 77% Calm Calm -- 29.75 in1007.5 mb - 0.00 in0.0 mm 0.00 in0.0 mm
03:55 AM 50.5°F10.3°C 43.6°F6.4°C 77% Calm Calm -- 29.75 in1007.5 mb - 0.00 in0.0 mm 0.00 in0.0 mm
03:50 AM 50.5°F10.3°C 43.6°F6.4°C 77% Calm Calm -- 29.75 in1007.5 mb - 0.00 in0.0 mm 0.00 in0.0 mm
03:45 AM 50.5°F10.3°C 43.6°F6.4°C 77% Calm Calm -- 29.75 in1007.5 mb - 0.00 in0.0 mm 0.00 in0.0 mm
03:40 AM 50.5°F10.3°C 43.6°F6.4°C 77% 2.3 mph ESE3.7 kmh ESE 3.5 mph5.6 kmh 29.76 in1007.8 mb - 0.00 in0.0 mm 0.00 in0.0 mm
03:35 AM 50.5°F10.3°C 43.6°F6.4°C 77% 1.2 mph E1.9 kmh E 2.3 mph3.7 kmh 29.76 in1007.8 mb - 0.00 in0.0 mm 0.00 in0.0 mm
03:30 AM 50.5°F10.3°C 43.6°F6.4°C 77% 2.3 mph E3.7 kmh E 3.5 mph5.6 kmh 29.75 in1007.5 mb - 0.00 in0.0 mm 0.00 in0.0 mm
03:25 AM 50.5°F10.3°C 43.6°F6.4°C 77% 3.5 mph E5.6 kmh E 6.9 mph11.1 kmh 29.75 in1007.5 mb - 0.00 in0.0 mm 0.00 in0.0 mm
03:20 AM 50.6°F10.3°C 43.7°F6.5°C 77% Calm Calm 2.3 mph3.7 kmh 29.75 in1007.5 mb - 0.00 in0.0 mm 0.00 in0.0 mm
03:15 AM 50.6°F10.3°C 43.7°F6.5°C 77% 2.3 mph E3.7 kmh E 3.5 mph5.6 kmh 29.75 in1007.5 mb - 0.00 in0.0 mm 0.00 in0.0 mm
03:10 AM 50.6°F10.3°C 43.7°F6.5°C 77% 2.3 mph E3.7 kmh E 3.5 mph5.6 kmh 29.75 in1007.5 mb - 0.00 in0.0 mm 0.00 in0.0 mm
03:05 AM 50.6°F10.3°C 43.7°F6.5°C 77% 2.3 mph E3.7 kmh E 3.5 mph5.6 kmh 29.75 in1007.5 mb - 0.00 in0.0 mm 0.00 in0.0 mm
03:00 AM 50.7°F10.4°C 43.8°F6.6°C 77% 2.3 mph E3.7 kmh E 3.5 mph5.6 kmh 29.76 in1007.8 mb - 0.00 in0.0 mm 0.00 in0.0 mm
02:55 AM 50.7°F10.4°C 43.8°F6.6°C 77% 1.2 mph E1.9 kmh E 3.5 mph5.6 kmh 29.75 in1007.5 mb - 0.00 in0.0 mm 0.00 in0.0 mm
02:50 AM 50.8°F10.4°C 43.8°F6.6°C 77% 1.2 mph E1.9 kmh E 3.5 mph5.6 kmh 29.75 in1007.5 mb - 0.00 in0.0 mm 0.00 in0.0 mm
02:45 AM 50.9°F10.5°C 43.9°F6.6°C 77% 2.3 mph E3.7 kmh E 3.5 mph5.6 kmh 29.75 in1007.5 mb - 0.00 in0.0 mm 0.00 in0.0 mm
02:40 AM 50.9°F10.5°C 43.9°F6.6°C 77% 2.3 mph E3.7 kmh E 3.5 mph5.6 kmh 29.75 in1007.5 mb - 0.00 in0.0 mm 0.00 in0.0 mm
02:35 AM 51.0°F10.6°C 44.0°F6.7°C 77% 3.5 mph ESE5.6 kmh ESE 3.5 mph5.6 kmh 29.76 in1007.8 mb - 0.00 in0.0 mm 0.00 in0.0 mm
02:30 AM 51.0°F10.6°C 44.0°F6.7°C 77% 2.3 mph ESE3.7 kmh ESE 3.5 mph5.6 kmh 29.76 in1007.8 mb - 0.00 in0.0 mm 0.00 in0.0 mm
02:25 AM 51.0°F10.6°C 44.0°F6.7°C 77% 2.3 mph SE3.7 kmh SE 3.5 mph5.6 kmh 29.75 in1007.5 mb - 0.00 in0.0 mm 0.00 in0.0 mm
02:20 AM 51.0°F10.6°C 44.0°F6.7°C 77% 2.3 mph ESE3.7 kmh ESE 3.5 mph5.6 kmh 29.75 in1007.5 mb - 0.00 in0.0 mm 0.00 in0.0 mm
02:15 AM 51.1°F10.6°C 44.1°F6.7°C 77% 2.3 mph ESE3.7 kmh ESE 3.5 mph5.6 kmh 29.75 in1007.5 mb - 0.00 in0.0 mm 0.00 in0.0 mm
02:10 AM 51.1°F10.6°C 44.1°F6.7°C 77% 2.3 mph ESE3.7 kmh ESE 3.5 mph5.6 kmh 29.76 in1007.8 mb - 0.00 in0.0 mm 0.00 in0.0 mm
02:05 AM 51.2°F10.7°C 44.2°F6.8°C 77% 2.3 mph ESE3.7 kmh ESE 3.5 mph5.6 kmh 29.75 in1007.5 mb - 0.00 in0.0 mm 0.00 in0.0 mm
02:00 AM 51.3°F10.7°C 44.3°F6.8°C 77% 2.3 mph ESE3.7 kmh ESE 2.3 mph3.7 kmh 29.75 in1007.5 mb - 0.00 in0.0 mm 0.00 in0.0 mm
01:55 AM 51.4°F10.8°C 44.4°F6.9°C 77% 2.3 mph ESE3.7 kmh ESE 3.5 mph5.6 kmh 29.75 in1007.5 mb - 0.00 in0.0 mm 0.00 in0.0 mm
01:50 AM 51.5°F10.8°C 44.5°F6.9°C 77% 3.5 mph ESE5.6 kmh ESE 3.5 mph5.6 kmh 29.76 in1007.8 mb - 0.00 in0.0 mm 0.00 in0.0 mm
01:45 AM 51.7°F10.9°C 44.4°F6.9°C 76% 2.3 mph ESE3.7 kmh ESE 2.3 mph3.7 kmh 29.76 in1007.8 mb - 0.00 in0.0 mm 0.00 in0.0 mm
01:40 AM 51.8°F11.0°C 44.4°F6.9°C 76% 1.2 mph ESE1.9 kmh ESE 1.2 mph1.9 kmh 29.76 in1007.8 mb - 0.00 in0.0 mm 0.00 in0.0 mm
01:35 AM 51.8°F11.0°C 44.5°F6.9°C 76% 2.3 mph ESE3.7 kmh ESE 3.5 mph5.6 kmh 29.75 in1007.5 mb - 0.00 in0.0 mm 0.00 in0.0 mm
01:30 AM 51.8°F11.0°C 44.5°F6.9°C 76% 2.3 mph ESE3.7 kmh ESE 3.5 mph5.6 kmh 29.76 in1007.8 mb - 0.00 in0.0 mm 0.00 in0.0 mm
01:25 AM 51.8°F11.0°C 44.5°F6.9°C 76% 3.5 mph ESE5.6 kmh ESE 3.5 mph5.6 kmh 29.76 in1007.8 mb - 0.00 in0.0 mm 0.00 in0.0 mm
01:20 AM 51.8°F11.0°C 44.5°F6.9°C 76% 2.3 mph ESE3.7 kmh ESE 3.5 mph5.6 kmh 29.76 in1007.8 mb - 0.00 in0.0 mm 0.00 in0.0 mm
01:15 AM 51.9°F11.1°C 44.6°F7.0°C 76% 2.3 mph ESE3.7 kmh ESE 3.5 mph5.6 kmh 29.76 in1007.8 mb - 0.00 in0.0 mm 0.00 in0.0 mm
01:10 AM 52.1°F11.2°C 44.7°F7.1°C 76% 2.3 mph ESE3.7 kmh ESE 3.5 mph5.6 kmh 29.76 in1007.8 mb - 0.00 in0.0 mm 0.00 in0.0 mm
01:05 AM 52.4°F11.3°C 44.7°F7.1°C 75% 2.3 mph ESE3.7 kmh ESE 3.5 mph5.6 kmh 29.76 in1007.8 mb - 0.00 in0.0 mm 0.00 in0.0 mm
01:00 AM 52.6°F11.4°C 44.9°F7.2°C 75% 2.3 mph ESE3.7 kmh ESE 3.5 mph5.6 kmh 29.76 in1007.8 mb - 0.00 in0.0 mm 0.00 in0.0 mm
12:55 AM 52.7°F11.5°C 45.0°F7.2°C 75% 1.2 mph ESE1.9 kmh ESE 3.5 mph5.6 kmh 29.76 in1007.8 mb - 0.00 in0.0 mm 0.00 in0.0 mm
12:50 AM 52.8°F11.6°C 45.1°F7.3°C 75% 3.5 mph ESE5.6 kmh ESE 3.5 mph5.6 kmh 29.76 in1007.8 mb - 0.00 in0.0 mm 0.00 in0.0 mm
12:45 AM 52.8°F11.6°C 45.1°F7.3°C 75% 2.3 mph ESE3.7 kmh ESE 3.5 mph5.6 kmh 29.76 in1007.8 mb - 0.00 in0.0 mm 0.00 in0.0 mm
12:40 AM 52.9°F11.6°C 45.2°F7.3°C 75% 2.3 mph SE3.7 kmh SE 4.6 mph7.4 kmh 29.76 in1007.8 mb - 0.00 in0.0 mm 0.00 in0.0 mm
12:35 AM 53.0°F11.7°C 45.3°F7.4°C 75% 2.3 mph E3.7 kmh E 3.5 mph5.6 kmh 29.76 in1007.8 mb - 0.00 in0.0 mm 0.00 in0.0 mm
12:30 AM 53.2°F11.8°C 45.5°F7.5°C 75% 2.3 mph E3.7 kmh E 3.5 mph5.6 kmh 29.76 in1007.8 mb - 0.00 in0.0 mm 0.00 in0.0 mm
12:25 AM 53.3°F11.8°C 45.6°F7.6°C 75% 2.3 mph E3.7 kmh E 3.5 mph5.6 kmh 29.76 in1007.8 mb - 0.00 in0.0 mm 0.00 in0.0 mm
12:20 AM 53.3°F11.8°C 45.2°F7.3°C 74% 3.5 mph E5.6 kmh E 3.5 mph5.6 kmh 29.76 in1007.8 mb - 0.00 in0.0 mm 0.00 in0.0 mm
12:15 AM 53.4°F11.9°C 45.3°F7.4°C 74% 3.5 mph E5.6 kmh E 3.5 mph5.6 kmh 29.76 in1007.8 mb - 0.00 in0.0 mm 0.00 in0.0 mm
12:10 AM 53.5°F11.9°C 45.4°F7.4°C 74% 2.3 mph E3.7 kmh E 4.6 mph7.4 kmh 29.76 in1007.8 mb - 0.00 in0.0 mm 0.00 in0.0 mm
12:05 AM 53.5°F11.9°C 45.4°F7.4°C 74% 3.5 mph E5.6 kmh E 3.5 mph5.6 kmh 29.76 in1007.8 mb - 0.00 in0.0 mm 0.00 in0.0 mm
12:00 AM 53.5°F11.9°C 45.4°F7.4°C 74% 2.3 mph E3.7 kmh E 3.5 mph5.6 kmh 29.77 in1008.1 mb - 0.00 in0.0 mm 0.00 in0.0 mm